Time;durP1;ratioP1;P1;durP2;ratioP2;P2;SDS_P1;SDS_P2;PMS_P1;PMS_P2;Temp;Humidity;BMP_temperature;BMP_pressure;BME280_temperature;BME280_humidity;BME280_pressure;Samples;Min_cycle;Max_cycle;Signal;HPM_P1;HPM_P2
2023/12/30 00:01:54;;;;;;;7.13;4.57;;;;;;;-144.57;100.00;62443.72;5051276;28;20649;-62
2023/12/30 00:04:20;;;;;;;8.18;5.13;;;;;;;-144.57;100.00;62443.72;5051053;28;20049;-61
2023/12/30 00:06:46;;;;;;;6.65;4.43;;;;;;;-144.57;100.00;62443.72;5050890;28;20048;-61
2023/12/30 00:09:11;;;;;;;6.75;4.40;;;;;;;-144.57;100.00;62443.72;5050463;28;20041;-61
2023/12/30 00:11:37;;;;;;;7.18;4.43;;;;;;;-144.57;100.00;62443.72;5051251;28;20049;-64
2023/12/30 00:14:04;;;;;;;4.65;3.78;;;;;;;-144.57;100.00;62443.72;5050742;28;20556;-64
2023/12/30 00:16:30;;;;;;;5.60;3.75;;;;;;;-144.57;100.00;62443.72;5066555;28;20045;-63
2023/12/30 00:18:56;;;;;;;5.20;3.95;;;;;;;-144.57;100.00;62443.72;5051097;28;20095;-62
2023/12/30 00:21:22;;;;;;;4.32;3.50;;;;;;;-144.57;100.00;62443.72;5051533;28;20045;-63
2023/12/30 00:23:49;;;;;;;6.90;3.67;;;;;;;-144.57;100.00;62443.72;5052695;28;20098;-63
2023/12/30 00:26:19;;;;;;;6.22;4.05;;;;;;;-144.57;100.00;62443.72;5055534;28;20033;-61
2023/12/30 00:28:46;;;;;;;5.85;3.92;;;;;;;-144.57;100.00;62443.72;5055435;28;20048;-61
2023/12/30 00:31:26;;;;;;;5.40;4.03;;;;;;;-144.57;100.00;62443.72;5053769;28;20037;-62
2023/12/30 00:33:57;;;;;;;5.60;3.78;;;;;;;-144.57;100.00;62443.72;5053761;28;20041;-61
2023/12/30 00:36:22;;;;;;;4.55;3.47;;;;;;;-144.57;100.00;62443.72;5054853;28;20053;-62
2023/12/30 00:38:49;;;;;;;5.82;3.47;;;;;;;-144.57;100.00;62443.72;5055039;28;20045;-62
2023/12/30 00:41:15;;;;;;;3.92;3.25;;;;;;;-144.57;100.00;62443.72;5055421;28;20049;-62
2023/12/30 00:43:42;;;;;;;4.63;3.35;;;;;;;-144.57;100.00;62443.72;5070457;28;20099;-62
2023/12/30 00:46:08;;;;;;;5.43;2.90;;;;;;;-144.57;100.00;62443.72;5055315;28;20045;-62
2023/12/30 00:48:34;;;;;;;5.18;3.35;;;;;;;-144.57;100.00;62443.72;5054897;28;20493;-62
2023/12/30 00:51:01;;;;;;;3.72;2.80;;;;;;;-144.57;100.00;62443.72;5070314;28;20125;-61
2023/12/30 00:53:30;;;;;;;4.32;3.00;;;;;;;-144.57;100.00;62443.72;5055003;28;20449;-61
2023/12/30 00:55:56;;;;;;;3.97;2.92;;;;;;;-144.57;100.00;62443.72;5055187;28;20124;-61
2023/12/30 00:58:22;;;;;;;3.45;2.72;;;;;;;-144.57;100.00;62443.72;5053430;28;20049;-63
2023/12/30 01:00:49;;;;;;;3.28;2.65;;;;;;;-144.57;100.00;62443.72;5054594;28;20037;-62
2023/12/30 01:03:15;;;;;;;4.25;2.67;;;;;;;-144.57;100.00;62443.72;5054485;28;20049;-62
2023/12/30 01:05:40;;;;;;;3.53;2.60;;;;;;;-144.57;100.00;62443.72;5053503;28;20096;-61
2023/12/30 01:08:06;;;;;;;3.33;2.40;;;;;;;-144.57;100.00;62443.72;5054337;28;20095;-62
2023/12/30 01:10:32;;;;;;;4.00;2.60;;;;;;;-144.57;100.00;62443.72;5054947;28;20041;-62
2023/12/30 01:12:58;;;;;;;2.88;2.30;;;;;;;-144.57;100.00;62443.72;5054632;28;20044;-62
2023/12/30 01:15:24;;;;;;;3.85;2.63;;;;;;;-144.57;100.00;62443.72;5069827;28;20375;-61
2023/12/30 01:17:49;;;;;;;4.22;2.60;;;;;;;-144.57;100.00;62443.72;5053138;28;20072;-61
2023/12/30 01:20:15;;;;;;;3.38;2.20;;;;;;;-144.57;100.00;62443.72;5054166;28;20052;-62
2023/12/30 01:22:41;;;;;;;3.13;2.15;;;;;;;-144.57;100.00;62443.72;5054546;28;20067;-61
2023/12/30 01:25:08;;;;;;;3.22;2.40;;;;;;;-144.57;100.00;62443.72;5054305;28;20463;-62
2023/12/30 01:27:34;;;;;;;2.95;2.00;;;;;;;-144.57;100.00;62443.72;5053207;28;20068;-61
2023/12/30 01:30:00;;;;;;;2.50;2.10;;;;;;;-144.57;100.00;62443.72;5052995;28;20064;-61
2023/12/30 01:32:30;;;;;;;3.00;2.08;;;;;;;-144.57;100.00;62443.72;5052883;28;20053;-62
2023/12/30 01:34:56;;;;;;;2.83;2.10;;;;;;;-144.57;100.00;62443.72;5051367;28;20045;-62
2023/12/30 01:37:22;;;;;;;2.47;1.88;;;;;;;-144.57;100.00;62443.72;5052898;28;20048;-62
2023/12/30 01:39:48;;;;;;;2.38;2.03;;;;;;;-144.57;100.00;62443.72;5052352;28;20032;-62
2023/12/30 01:42:15;;;;;;;2.65;1.88;;;;;;;-144.57;100.00;62443.72;5035426;28;20080;-61
2023/12/30 01:44:41;;;;;;;3.40;2.20;;;;;;;-144.57;100.00;62443.72;5052115;28;20072;-62
2023/12/30 01:47:06;;;;;;;2.70;2.30;;;;;;;-144.57;100.00;62443.72;5053982;28;20044;-62
2023/12/30 01:49:32;;;;;;;3.03;2.35;;;;;;;-144.57;100.00;62443.72;5052482;28;20037;-62
2023/12/30 01:51:59;;;;;;;2.22;2.03;;;;;;;-144.57;100.00;62443.72;5052571;28;20076;-62
2023/12/30 01:54:25;;;;;;;2.67;2.25;;;;;;;-144.57;100.00;62443.72;5053522;28;20048;-62
2023/12/30 01:56:52;;;;;;;3.13;2.38;;;;;;;-144.57;100.00;62443.72;5036172;28;20060;-62
2023/12/30 01:59:18;;;;;;;2.50;2.15;;;;;;;-144.57;100.00;62443.72;5053733;28;20065;-62
2023/12/30 02:01:46;;;;;;;2.88;2.47;;;;;;;-144.57;100.00;62443.72;5052472;28;20135;-62
2023/12/30 02:04:12;;;;;;;2.95;2.40;;;;;;;-144.57;100.00;62443.72;5053312;28;20131;-61
2023/12/30 02:06:41;;;;;;;3.20;2.63;;;;;;;-144.57;100.00;62443.72;5053732;28;20045;-61
2023/12/30 02:09:08;;;;;;;3.88;2.63;;;;;;;-144.57;100.00;62443.72;5035790;28;20086;-62
2023/12/30 02:11:36;;;;;;;3.83;2.63;;;;;;;-144.57;100.00;62443.72;5036106;28;20045;-62
2023/12/30 02:14:02;;;;;;;5.03;2.75;;;;;;;-144.57;100.00;62443.72;5035443;28;20048;-61
2023/12/30 02:16:28;;;;;;;3.80;2.67;;;;;;;-144.57;100.00;62443.72;5052284;28;20048;-63
2023/12/30 02:18:54;;;;;;;3.55;2.63;;;;;;;-144.57;100.00;62443.72;5035682;28;20041;-61
2023/12/30 02:21:20;;;;;;;2.88;2.58;;;;;;;-144.57;100.00;62443.72;5053683;28;20261;-61
2023/12/30 02:23:53;;;;;;;4.00;3.00;;;;;;;-144.57;100.00;62443.72;5053122;28;20090;-62
2023/12/30 02:26:19;;;;;;;4.03;2.80;;;;;;;-144.57;100.00;62443.72;5051962;28;20501;-61
2023/12/30 02:28:44;;;;;;;3.17;2.88;;;;;;;-144.57;100.00;62443.72;5051763;28;20223;-60
2023/12/30 02:31:10;;;;;;;3.63;2.80;;;;;;;-144.57;100.00;62443.72;5068512;28;20049;-62
2023/12/30 02:33:36;;;;;;;4.40;2.90;;;;;;;-144.57;100.00;62443.72;5068400;28;20068;-62
2023/12/30 02:36:02;;;;;;;5.20;3.10;;;;;;;-144.57;100.00;62443.72;5068287;28;20069;-62
2023/12/30 02:38:27;;;;;;;3.58;2.85;;;;;;;-144.57;100.00;62443.72;5068556;28;20086;-62
2023/12/30 02:40:53;;;;;;;3.28;2.95;;;;;;;-144.57;100.00;62443.72;5053107;28;20059;-60
2023/12/30 02:43:19;;;;;;;3.63;3.22;;;;;;;-144.57;100.00;62443.72;5051909;28;20605;-62
2023/12/30 02:45:45;;;;;;;4.60;2.90;;;;;;;-144.57;100.00;62443.72;5050449;28;20064;-62
2023/12/30 02:48:10;;;;;;;3.47;2.75;;;;;;;-144.57;100.00;62443.72;5052711;28;20080;-61
2023/12/30 02:50:36;;;;;;;4.30;2.95;;;;;;;-144.57;100.00;62443.72;5052773;28;20092;-61
2023/12/30 02:53:02;;;;;;;4.10;2.97;;;;;;;-144.57;100.00;62443.72;5052356;28;22069;-62
2023/12/30 02:55:28;;;;;;;3.65;3.10;;;;;;;-144.57;100.00;62443.72;5052636;28;20376;-62
2023/12/30 02:57:54;;;;;;;4.00;2.83;;;;;;;-144.57;100.00;62443.72;5052287;28;20122;-62
2023/12/30 03:00:19;;;;;;;3.70;2.90;;;;;;;-144.57;100.00;62443.72;5034464;28;20508;-62
2023/12/30 03:02:46;;;;;;;4.60;2.80;;;;;;;-144.57;100.00;62443.72;5052040;28;20044;-62
2023/12/30 03:05:11;;;;;;;3.83;2.80;;;;;;;-144.57;100.00;62443.72;5052488;28;20387;-62
2023/12/30 03:07:37;;;;;;;4.07;3.22;;;;;;;-144.57;100.00;62443.72;5034178;28;20045;-62
2023/12/30 03:10:04;;;;;;;2.83;2.38;;;;;;;-144.57;100.00;62443.72;5050215;28;20099;-61
2023/12/30 03:12:31;;;;;;;4.57;2.83;;;;;;;-144.57;100.00;62443.72;5050957;28;20053;-63
2023/12/30 03:14:57;;;;;;;3.85;2.67;;;;;;;-144.57;100.00;62443.72;5050762;28;20135;-61
2023/12/30 03:17:23;;;;;;;3.60;2.75;;;;;;;-144.57;100.00;62443.72;5051681;28;20091;-62
2023/12/30 03:19:49;;;;;;;3.55;2.67;;;;;;;-144.57;100.00;62443.72;5050786;28;20041;-62
2023/12/30 03:22:15;;;;;;;3.22;2.50;;;;;;;-144.57;100.00;62443.72;5052031;28;20406;-63
2023/12/30 03:24:40;;;;;;;2.50;2.20;;;;;;;-144.57;100.00;62443.72;5050157;28;20099;-61
2023/12/30 03:27:06;;;;;;;2.70;2.22;;;;;;;-144.57;100.00;62443.72;5051651;28;20475;-64
2023/12/30 03:29:32;;;;;;;4.07;2.70;;;;;;;-144.57;100.00;62443.72;5033806;28;20276;-62
2023/12/30 03:31:58;;;;;;;2.10;1.80;;;;;;;-144.57;100.00;62443.72;5051133;28;20045;-63
2023/12/30 03:34:23;;;;;;;2.75;2.25;;;;;;;-144.57;100.00;62443.72;5051569;28;20132;-62
2023/12/30 03:36:49;;;;;;;2.00;1.80;;;;;;;-144.57;100.00;62443.72;5053790;28;20068;-62
2023/12/30 03:39:15;;;;;;;2.72;2.05;;;;;;;-144.57;100.00;62443.72;5049777;28;20470;-62
2023/12/30 03:41:40;;;;;;;2.33;2.00;;;;;;;-144.57;100.00;62443.72;5050168;28;20098;-61
2023/12/30 03:44:06;;;;;;;3.28;2.13;;;;;;;-144.57;100.00;62443.72;5050336;28;20115;-61
2023/12/30 03:46:32;;;;;;;1.83;1.65;;;;;;;-144.57;100.00;62443.72;5067015;28;20424;-63
2023/12/30 03:48:58;;;;;;;2.88;1.73;;;;;;;-144.57;100.00;62443.72;5063703;28;20171;-62
2023/12/30 03:51:24;;;;;;;2.10;1.90;;;;;;;-144.57;100.00;62443.72;5031975;28;20560;-63
2023/12/30 03:53:50;;;;;;;2.05;1.85;;;;;;;-144.57;100.00;62443.72;5044871;28;20076;-60
2023/12/30 03:56:17;;;;;;;2.00;1.80;;;;;;;-144.57;100.00;62443.72;5049444;28;20128;-63
2023/12/30 03:58:43;;;;;;;2.15;1.90;;;;;;;-144.57;100.00;62443.72;5049308;28;20523;-62
2023/12/30 04:01:11;;;;;;;1.90;1.67;;;;;;;-144.57;100.00;62443.72;5062861;28;20050;-61
2023/12/30 04:03:37;;;;;;;1.60;1.50;;;;;;;-144.57;100.00;62443.72;5062364;28;20379;-61
2023/12/30 04:06:02;;;;;;;1.40;1.30;;;;;;;-144.57;100.00;62443.72;5066396;28;20052;-62
2023/12/30 04:08:28;;;;;;;1.45;1.30;;;;;;;-144.57;100.00;62443.72;5066701;28;20047;-62
2023/12/30 04:10:54;;;;;;;2.03;1.40;;;;;;;-144.57;100.00;62443.72;5033660;28;20049;-62
2023/12/30 04:13:20;;;;;;;2.22;1.40;;;;;;;-144.57;100.00;62443.72;5051445;28;20060;-62
2023/12/30 04:15:46;;;;;;;1.17;1.13;;;;;;;-144.57;100.00;62443.72;5083793;28;20044;-62
2023/12/30 04:18:11;;;;;;;1.27;1.17;;;;;;;-144.57;100.00;62443.72;5066117;28;20051;-61
2023/12/30 04:20:37;;;;;;;1.10;1.10;;;;;;;-144.57;100.00;62443.72;5066982;28;20063;-62
2023/12/30 04:23:03;;;;;;;1.20;1.10;;;;;;;-144.57;100.00;62443.72;5065748;28;20572;-63
2023/12/30 04:25:29;;;;;;;1.00;1.00;;;;;;;-144.57;100.00;62443.72;5066215;28;20041;-62
2023/12/30 04:27:55;;;;;;;1.00;0.90;;;;;;;-144.57;100.00;62443.72;5049724;28;20044;-62
2023/12/30 04:30:21;;;;;;;0.90;0.90;;;;;;;-144.57;100.00;62443.72;5033148;28;20498;-62
2023/12/30 04:32:47;;;;;;;0.90;0.90;;;;;;;-144.57;100.00;62443.72;5049386;28;20040;-62
2023/12/30 04:35:12;;;;;;;0.98;0.98;;;;;;;-144.57;100.00;62443.72;5051087;28;20053;-61
2023/12/30 04:37:38;;;;;;;1.58;1.20;;;;;;;-144.57;100.00;62443.72;5049422;28;20044;-62
2023/12/30 04:40:05;;;;;;;1.35;0.80;;;;;;;-144.57;100.00;62443.72;5050707;28;20044;-61
2023/12/30 04:42:30;;;;;;;1.33;1.10;;;;;;;-144.57;100.00;62443.72;5049677;28;20395;-62
2023/12/30 04:44:56;;;;;;;1.42;0.98;;;;;;;-144.57;100.00;62443.72;5049718;28;20053;-61
2023/12/30 04:47:22;;;;;;;0.93;0.93;;;;;;;-144.57;100.00;62443.72;5050268;28;20048;-63
2023/12/30 04:49:48;;;;;;;2.85;1.25;;;;;;;-144.57;100.00;62443.72;5049417;28;20048;-61
2023/12/30 04:52:14;;;;;;;0.98;0.90;;;;;;;-144.57;100.00;62443.72;5066331;28;20040;-63
2023/12/30 04:54:42;;;;;;;1.08;1.00;;;;;;;-144.57;100.00;62443.72;5049428;28;20422;-61
2023/12/30 04:57:08;;;;;;;1.10;1.00;;;;;;;-144.57;100.00;62443.72;5049406;28;20064;-62
2023/12/30 04:59:35;;;;;;;1.23;1.00;;;;;;;-144.57;100.00;62443.72;5065726;28;20072;-60
2023/12/30 05:02:01;;;;;;;0.80;0.80;;;;;;;-144.57;100.00;62443.72;5050614;28;20044;-62
2023/12/30 05:04:27;;;;;;;1.92;1.00;;;;;;;-144.57;100.00;62443.72;5049987;28;20123;-62
2023/12/30 05:06:53;;;;;;;1.30;1.05;;;;;;;-144.57;100.00;62443.72;5050751;28;20044;-62
2023/12/30 05:09:20;;;;;;;1.73;1.27;;;;;;;-144.57;100.00;62443.72;5050637;28;20041;-61
2023/12/30 05:11:48;;;;;;;1.00;1.00;;;;;;;-144.57;100.00;62443.72;5054601;28;20072;-63
2023/12/30 05:14:15;;;;;;;1.88;1.05;;;;;;;-144.57;100.00;62443.72;5053037;28;20045;-62
2023/12/30 05:16:45;;;;;;;1.30;1.20;;;;;;;-144.57;100.00;62443.72;5049310;28;20029;-63
2023/12/30 05:19:11;;;;;;;0.98;0.90;;;;;;;-144.57;100.00;62443.72;5066007;28;20043;-62
2023/12/30 05:21:38;;;;;;;1.10;1.00;;;;;;;-144.57;100.00;62443.72;5066193;28;20049;-62
2023/12/30 05:24:05;;;;;;;1.02;1.00;;;;;;;-144.57;100.00;62443.72;5052690;28;20120;-63
2023/12/30 05:26:30;;;;;;;1.55;1.10;;;;;;;-144.57;100.00;62443.72;5068746;28;20048;-61
2023/12/30 05:28:57;;;;;;;0.80;0.80;;;;;;;-144.57;100.00;62443.72;5053943;28;20037;-63
2023/12/30 05:31:24;;;;;;;1.40;1.30;;;;;;;-144.57;100.00;62443.72;5053749;28;20072;-62
2023/12/30 05:33:49;;;;;;;0.95;0.90;;;;;;;-144.57;100.00;62443.72;5052405;28;20033;-62
2023/12/30 05:36:15;;;;;;;1.20;1.10;;;;;;;-144.57;100.00;62443.72;5053658;28;20094;-63
2023/12/30 05:38:41;;;;;;;1.13;1.00;;;;;;;-144.57;100.00;62443.72;5053760;28;20421;-62
2023/12/30 05:41:07;;;;;;;0.90;0.90;;;;;;;-144.57;100.00;62443.72;5052529;28;20040;-63
2023/12/30 05:43:32;;;;;;;1.55;1.30;;;;;;;-144.57;100.00;62443.72;5054081;28;20542;-62
2023/12/30 05:45:58;;;;;;;1.45;1.30;;;;;;;-144.57;100.00;62443.72;5069320;28;20048;-63
2023/12/30 05:48:24;;;;;;;1.50;1.30;;;;;;;-144.57;100.00;62443.72;5054297;28;20402;-62
2023/12/30 05:50:50;;;;;;;1.23;1.17;;;;;;;-144.57;100.00;62443.72;5054144;28;20070;-61
2023/12/30 05:53:15;;;;;;;1.75;1.40;;;;;;;-144.57;100.00;62443.72;5062499;28;20036;-62
2023/12/30 05:55:41;;;;;;;2.83;2.05;;;;;;;-144.57;100.00;62443.72;5034115;28;20053;-65
2023/12/30 05:58:07;;;;;;;1.88;1.40;;;;;;;-144.57;100.00;62443.72;5049947;28;20044;-62
2023/12/30 06:00:33;;;;;;;3.00;1.30;;;;;;;-144.57;100.00;62443.72;5052194;28;20040;-63
2023/12/30 06:02:59;;;;;;;2.72;1.30;;;;;;;-144.57;100.00;62443.72;5068636;28;20080;-62
2023/12/30 06:05:25;;;;;;;1.30;1.20;;;;;;;-144.57;100.00;62443.72;5053835;28;20049;-61
2023/12/30 06:07:51;;;;;;;1.67;1.30;;;;;;;-144.57;100.00;62443.72;5052508;28;20043;-62
2023/12/30 06:10:19;;;;;;;1.42;1.23;;;;;;;-144.57;100.00;62443.72;5052277;28;20045;-62
2023/12/30 06:12:44;;;;;;;1.40;1.30;;;;;;;-144.57;100.00;62443.72;5068684;28;20040;-62
2023/12/30 06:15:10;;;;;;;1.10;1.10;;;;;;;-144.57;100.00;62443.72;5052061;28;20465;-61
2023/12/30 06:17:36;;;;;;;3.60;1.52;;;;;;;-144.57;100.00;62443.72;5053297;28;20120;-63
2023/12/30 06:20:02;;;;;;;1.92;1.20;;;;;;;-144.57;100.00;62443.72;5052490;28;20397;-63
2023/12/30 06:22:29;;;;;;;5.00;1.48;;;;;;;-144.57;100.00;62443.72;5067870;28;20081;-63
2023/12/30 06:24:55;;;;;;;1.38;1.25;;;;;;;-144.57;100.00;62443.72;5053129;28;20128;-62
2023/12/30 06:27:20;;;;;;;1.85;1.27;;;;;;;-144.57;100.00;62443.72;5052746;28;20063;-64
2023/12/30 06:29:47;;;;;;;1.90;1.30;;;;;;;-144.57;100.00;62443.72;5052359;28;20098;-61
2023/12/30 06:32:13;;;;;;;1.75;1.50;;;;;;;-144.57;100.00;62443.72;5052505;28;20421;-63
2023/12/30 06:34:39;;;;;;;1.70;1.60;;;;;;;-144.57;100.00;62443.72;5051314;28;20091;-62
2023/12/30 06:37:05;;;;;;;1.60;1.50;;;;;;;-144.57;100.00;62443.72;5052791;28;20093;-61
2023/12/30 06:39:30;;;;;;;1.50;1.40;;;;;;;-144.57;100.00;62443.72;5052333;28;20080;-62
2023/12/30 06:41:59;;;;;;;1.80;1.30;;;;;;;-144.57;100.00;62443.72;5051930;28;20037;-63
2023/12/30 06:44:25;;;;;;;1.88;1.60;;;;;;;-144.57;100.00;62443.72;5052838;28;20037;-61
2023/12/30 06:46:52;;;;;;;1.48;1.38;;;;;;;-144.57;100.00;62443.72;5034820;28;20422;-65
2023/12/30 06:49:18;;;;;;;1.48;1.38;;;;;;;-144.57;100.00;62443.72;5052194;28;20127;-63
2023/12/30 06:51:44;;;;;;;2.03;1.67;;;;;;;-144.57;100.00;62443.72;5050853;28;20399;-62
2023/12/30 06:54:10;;;;;;;1.45;1.20;;;;;;;-144.57;100.00;62443.72;5048516;28;20037;-62
2023/12/30 06:56:36;;;;;;;1.60;1.50;;;;;;;-144.57;100.00;62443.72;5051652;28;20049;-63
2023/12/30 06:59:01;;;;;;;1.73;1.63;;;;;;;-144.57;100.00;62443.72;5050769;28;20503;-63
2023/12/30 07:01:27;;;;;;;1.30;1.20;;;;;;;-144.57;100.00;62443.72;5050722;28;20041;-63
2023/12/30 07:03:53;;;;;;;1.27;1.15;;;;;;;-144.57;100.00;62443.72;5050290;28;20041;-63
2023/12/30 07:06:19;;;;;;;1.45;1.35;;;;;;;-144.57;100.00;62443.72;5052526;28;20091;-62
2023/12/30 07:08:46;;;;;;;1.67;1.27;;;;;;;-144.57;100.00;62443.72;5050287;28;20068;-65
2023/12/30 07:11:12;;;;;;;1.17;1.10;;;;;;;-144.57;100.00;62443.72;5050112;28;20045;-62
2023/12/30 07:13:38;;;;;;;1.88;1.30;;;;;;;-144.57;100.00;62443.72;5051988;28;20556;-68
2023/12/30 07:16:04;;;;;;;2.30;1.40;;;;;;;-144.57;100.00;62443.72;5049377;28;20533;-62
2023/12/30 07:18:30;;;;;;;1.05;1.00;;;;;;;-144.57;100.00;62443.72;5048850;28;20049;-61
2023/12/30 07:20:55;;;;;;;2.05;1.20;;;;;;;-144.57;100.00;62443.72;5049296;28;20403;-62
2023/12/30 07:23:21;;;;;;;1.98;1.20;;;;;;;-144.57;100.00;62443.72;5049856;28;20155;-60
2023/12/30 07:25:51;;;;;;;1.05;1.05;;;;;;;-144.57;100.00;62443.72;5050233;28;20037;-61
2023/12/30 07:28:17;;;;;;;1.00;1.00;;;;;;;-144.57;100.00;62443.72;5051715;28;20037;-61
2023/12/30 07:30:43;;;;;;;1.75;1.27;;;;;;;-144.57;100.00;62443.72;5050379;28;20124;-61
2023/12/30 07:33:09;;;;;;;1.42;1.33;;;;;;;-144.57;100.00;62443.72;5052757;28;20053;-62
2023/12/30 07:35:35;;;;;;;1.60;1.30;;;;;;;-144.57;100.00;62443.72;5051261;28;20122;-62
2023/12/30 07:38:00;;;;;;;1.55;1.45;;;;;;;-144.57;100.00;62443.72;5051761;28;20545;-61
2023/12/30 07:40:26;;;;;;;1.58;1.30;;;;;;;-144.57;100.00;62443.72;5053898;28;20552;-64
2023/12/30 07:42:52;;;;;;;2.25;1.50;;;;;;;-144.57;100.00;62443.72;5050992;28;20041;-62
2023/12/30 07:45:18;;;;;;;1.42;1.30;;;;;;;-144.57;100.00;62443.72;5051859;28;20048;-61
2023/12/30 07:47:44;;;;;;;1.55;1.40;;;;;;;-144.57;100.00;62443.72;5053184;28;20526;-63
2023/12/30 07:50:10;;;;;;;1.45;1.35;;;;;;;-144.57;100.00;62443.72;5052909;28;20398;-62
2023/12/30 07:52:36;;;;;;;1.58;1.40;;;;;;;-144.57;100.00;62443.72;5056626;28;20041;-63
2023/12/30 07:55:02;;;;;;;1.30;1.20;;;;;;;-144.57;100.00;62443.72;5055816;28;20052;-62
2023/12/30 07:57:30;;;;;;;2.38;1.52;;;;;;;-144.57;100.00;62443.72;5055079;28;20041;-62
2023/12/30 07:59:56;;;;;;;1.50;1.40;;;;;;;-144.57;100.00;62443.72;5054167;28;20052;-61
2023/12/30 08:02:21;;;;;;;1.65;1.50;;;;;;;-144.57;100.00;62443.72;5049318;28;20044;-63
2023/12/30 08:04:47;;;;;;;1.92;1.52;;;;;;;-144.57;100.00;62443.72;5051622;28;20127;-63
2023/12/30 08:07:14;;;;;;;1.40;1.30;;;;;;;-144.57;100.00;62443.72;5051391;28;20044;-62
2023/12/30 08:09:40;;;;;;;1.83;1.52;;;;;;;-144.57;100.00;62443.72;5051147;28;20142;-62
2023/12/30 08:12:06;;;;;;;1.73;1.50;;;;;;;-144.57;100.00;62443.72;5054314;28;20041;-63
2023/12/30 08:14:33;;;;;;;2.28;1.70;;;;;;;-144.57;100.00;62443.72;5050808;28;20068;-61
2023/12/30 08:16:59;;;;;;;1.73;1.63;;;;;;;-144.57;100.00;62443.72;5068920;28;20029;-60
2023/12/30 08:19:25;;;;;;;5.47;1.85;;;;;;;-144.57;100.00;62443.72;5070459;28;20511;-62
2023/12/30 08:21:51;;;;;;;2.67;1.60;;;;;;;-144.57;100.00;62443.72;5070268;28;20048;-62
2023/12/30 08:24:19;;;;;;;3.00;1.80;;;;;;;-144.57;100.00;62443.72;5067307;28;20048;-64
2023/12/30 08:26:45;;;;;;;2.47;1.75;;;;;;;-144.57;100.00;62443.72;5060699;28;20109;-63
2023/12/30 08:29:11;;;;;;;2.35;1.70;;;;;;;-144.57;100.00;62443.72;5069489;28;20068;-63
2023/12/30 08:31:36;;;;;;;2.13;1.45;;;;;;;-144.57;100.00;62443.72;5057741;28;20044;-65
2023/12/30 08:34:02;;;;;;;2.00;1.70;;;;;;;-144.57;100.00;62443.72;5049738;28;20469;-65
2023/12/30 08:36:29;;;;;;;3.20;1.80;;;;;;;-144.57;100.00;62443.72;5050213;28;20084;-63
2023/12/30 08:38:55;;;;;;;1.63;1.40;;;;;;;-144.57;100.00;62443.72;5049886;28;20044;-63
2023/12/30 08:41:24;;;;;;;2.00;1.70;;;;;;;-144.57;100.00;62443.72;5049492;28;20045;-63
2023/12/30 08:43:55;;;;;;;2.60;1.73;;;;;;;-144.57;100.00;62443.72;5065920;28;20047;-63
2023/12/30 08:46:21;;;;;;;2.13;1.40;;;;;;;-144.57;100.00;62443.72;5054378;28;20053;-63
2023/12/30 08:48:47;;;;;;;4.03;1.55;;;;;;;-144.57;100.00;62443.72;5054633;28;20542;-64
2023/12/30 08:51:13;;;;;;;2.25;1.50;;;;;;;-144.57;100.00;62443.72;5054701;28;20049;-65
2023/12/30 08:53:39;;;;;;;1.73;1.50;;;;;;;-144.57;100.00;62443.72;5054618;28;20048;-64
2023/12/30 08:56:06;;;;;;;1.55;1.40;;;;;;;-144.57;100.00;62443.72;5054872;28;20041;-63
2023/12/30 08:58:32;;;;;;;1.58;1.25;;;;;;;-144.57;100.00;62443.72;5054063;28;20048;-62
2023/12/30 09:00:58;;;;;;;2.78;1.50;;;;;;;-144.57;100.00;62443.72;5053965;28;20045;-63
2023/12/30 09:03:23;;;;;;;1.50;1.40;;;;;;;-144.57;100.00;62443.72;5054482;28;20044;-64
2023/12/30 09:05:49;;;;;;;3.38;1.50;;;;;;;-144.57;100.00;62443.72;5053084;28;20136;-64
2023/12/30 09:08:15;;;;;;;1.50;1.40;;;;;;;-144.57;100.00;62443.72;5053980;28;20127;-64
2023/12/30 09:10:41;;;;;;;2.30;1.60;;;;;;;-144.57;100.00;62443.72;5054251;28;20128;-64
2023/12/30 09:13:07;;;;;;;3.67;1.80;;;;;;;-144.57;100.00;62443.72;5053805;28;20136;-64
2023/12/30 09:15:34;;;;;;;2.20;1.80;;;;;;;-144.57;100.00;62443.72;5035885;28;20056;-62
2023/12/30 09:18:00;;;;;;;3.15;1.60;;;;;;;-144.57;100.00;62443.72;5054208;28;20040;-62
2023/12/30 09:20:25;;;;;;;1.88;1.50;;;;;;;-144.57;100.00;62443.72;5054213;28;20044;-63
2023/12/30 09:22:52;;;;;;;1.95;1.50;;;;;;;-144.57;100.00;62443.72;5053868;28;20055;-63
2023/12/30 09:25:18;;;;;;;3.80;1.40;;;;;;;-144.57;100.00;62443.72;5053755;28;20106;-63
2023/12/30 09:27:45;;;;;;;2.08;1.73;;;;;;;-144.57;100.00;62443.72;5035920;28;20506;-64
2023/12/30 09:30:12;;;;;;;2.88;1.60;;;;;;;-144.57;100.00;62443.72;5053842;28;20115;-64
2023/12/30 09:32:37;;;;;;;2.10;1.90;;;;;;;-144.57;100.00;62443.72;5053868;28;20048;-64
2023/12/30 09:35:05;;;;;;;2.55;1.77;;;;;;;-144.57;100.00;62443.72;5052315;28;20048;-64
2023/12/30 09:37:31;;;;;;;3.20;2.20;;;;;;;-144.57;100.00;62443.72;5053600;28;20143;-62
2023/12/30 09:39:57;;;;;;;3.17;2.15;;;;;;;-144.57;100.00;62443.72;5053605;28;20048;-64
2023/12/30 09:42:23;;;;;;;3.63;2.00;;;;;;;-144.57;100.00;62443.72;5053038;28;20039;-63
2023/12/30 09:44:50;;;;;;;3.53;2.15;;;;;;;-144.57;100.00;62443.72;5048877;28;20037;-64
2023/12/30 09:47:17;;;;;;;2.78;1.92;;;;;;;-144.57;100.00;62443.72;5051635;28;20040;-64
2023/12/30 09:49:44;;;;;;;2.40;1.90;;;;;;;-144.57;100.00;62443.72;5053771;28;20040;-66
2023/12/30 09:52:10;;;;;;;4.47;2.78;;;;;;;-144.57;100.00;62443.72;5053446;28;20041;-63
2023/12/30 09:54:37;;;;;;;4.55;2.38;;;;;;;-144.57;100.00;62443.72;5050863;28;20045;-61
2023/12/30 09:57:04;;;;;;;3.90;2.42;;;;;;;-144.57;100.00;62443.72;5051679;28;20037;-63
2023/12/30 09:59:30;;;;;;;3.28;2.35;;;;;;;-144.57;100.00;62443.72;5051993;28;20224;-62
2023/12/30 10:01:57;;;;;;;2.92;2.10;;;;;;;-144.57;100.00;62443.72;5053581;28;20066;-63
2023/12/30 10:04:23;;;;;;;2.58;1.92;;;;;;;-144.57;100.00;62443.72;5053026;28;20041;-62
2023/12/30 10:06:49;;;;;;;3.67;2.38;;;;;;;-144.57;100.00;62443.72;5052166;28;20064;-63
2023/12/30 10:09:16;;;;;;;2.05;1.85;;;;;;;-144.57;100.00;62443.72;5052804;28;20044;-61
2023/12/30 10:11:44;;;;;;;2.47;2.15;;;;;;;-144.57;100.00;62443.72;5052565;28;20045;-63
2023/12/30 10:14:10;;;;;;;2.08;1.77;;;;;;;-144.57;100.00;62443.72;5049520;28;20033;-62
2023/12/30 10:16:36;;;;;;;3.38;2.05;;;;;;;-144.57;100.00;62443.72;5054356;28;20064;-62
2023/12/30 10:19:02;;;;;;;1.92;1.73;;;;;;;-144.57;100.00;62443.72;5052039;28;20327;-64
2023/12/30 10:21:28;;;;;;;2.78;2.08;;;;;;;-144.57;100.00;62443.72;5051590;28;20044;-63
2023/12/30 10:23:58;;;;;;;3.35;2.35;;;;;;;-144.57;100.00;62443.72;5052746;28;20452;-62
2023/12/30 10:26:23;;;;;;;2.60;2.00;;;;;;;-144.57;100.00;62443.72;5052646;28;20044;-62
2023/12/30 10:28:49;;;;;;;2.63;2.00;;;;;;;-144.57;100.00;62443.72;5051467;28;20060;-62
2023/12/30 10:31:16;;;;;;;2.40;2.13;;;;;;;-144.57;100.00;62443.72;5052181;28;20075;-62
2023/12/30 10:33:42;;;;;;;2.78;2.00;;;;;;;-144.57;100.00;62443.72;5066954;28;20052;-62
2023/12/30 10:36:09;;;;;;;4.78;2.00;;;;;;;-144.57;100.00;62443.72;5052111;28;20068;-62
2023/12/30 10:38:35;;;;;;;3.80;2.20;;;;;;;-144.57;100.00;62443.72;5052221;28;20044;-63
2023/12/30 10:41:01;;;;;;;2.67;1.80;;;;;;;-144.57;100.00;62443.72;5052573;28;20045;-62
2023/12/30 10:43:27;;;;;;;3.20;2.58;;;;;;;-144.57;100.00;62443.72;5051984;28;20083;-63
2023/12/30 10:45:58;;;;;;;3.75;2.50;;;;;;;-144.57;100.00;62443.72;5052420;28;20044;-61
2023/12/30 10:48:32;;;;;;;4.88;3.13;;;;;;;-144.57;100.00;62443.72;5052473;28;20045;-62
2023/12/30 10:50:59;;;;;;;4.07;2.83;;;;;;;-144.57;100.00;62443.72;5052512;28;20044;-62
2023/12/30 10:53:39;;;;;;;4.95;3.35;;;;;;;-144.57;100.00;62443.72;5052063;28;20072;-62
2023/12/30 10:56:07;;;;;;;4.32;2.90;;;;;;;-144.57;100.00;62443.72;5050622;28;20286;-62
2023/12/30 10:58:36;;;;;;;4.55;2.97;;;;;;;-144.57;100.00;62443.72;5049999;28;20037;-63
2023/12/30 11:01:04;;;;;;;4.40;2.88;;;;;;;-144.57;100.00;62443.72;5051102;28;20222;-62
2023/12/30 11:03:31;;;;;;;5.75;3.22;;;;;;;-144.57;100.00;62443.72;5051418;28;20044;-61
2023/12/30 11:06:17;;;;;;;4.32;2.97;;;;;;;-144.57;100.00;62443.72;5081616;28;20051;-62